Nearby Airport METAR Reports

 

KVSF - Springfield, Vermont, USA
Distance from station: WSW 8mi, 12km
Updated: 2:54pm
Overcast
Overcast
 Wind from WSW
Wind: WSW 12 mph , 19 km/h, Gust: 20 mph , 31 km/h
Temperature: 54°F , 12°C
Dew Point: 41°F , 5°C
Humidity: 63%
Barometer: 29.65 inHg , 1004.1 hPa
Clouds: Overcast
Visibility: 10 miles , 16 km
Cloud details: Mostly cloudy 3900 ft
Overcast 4900 ft
2018/04/26 18:54 KVSF 261854Z AUTO 25010G17KT 10SM BKN039 OVC049 12/05 A2965 RMK AO2 SLP044 T01220050
KLEB - Lebanon, New Hampshire, USA
Distance from station: N 18mi, 29km
Updated: 2:53pm
Overcast
Overcast
 Wind from WSW
Wind: WSW 14 mph , 22 km/h
Temperature: 59°F , 15°C
Dew Point: 43°F , 6°C
Humidity: 55%
Barometer: 29.61 inHg , 1002.7 hPa
Clouds: Overcast
Visibility: 10 miles , 16 km
Cloud details: Mostly cloudy 3900 ft
Overcast 4600 ft
2018/04/26 18:53 KLEB 261853Z 25012KT 10SM BKN039 OVC046 15/06 A2961 RMK AO2 SLP023 T01500056
KRUT - Rutland State, Vermont, USA
Distance from station: WNW 31mi, 50km
Updated: 1:56pm
Overcast
Overcast
 Wind from SW
Wind: SW 12 mph , 19 km/h
Temperature: 54°F , 12°C
Dew Point: 43°F , 6°C
Humidity: 67%
Barometer: 29.65 inHg , 1004.1 hPa
Clouds: Overcast
Visibility: 10 miles , 16 km
Cloud details: Overcast 3100 ft
2018/04/26 17:56 KRUT 261756Z AUTO 22010KT 10SM OVC031 12/06 A2965 RMK AO2 SLP061 60002 T01170056 10128 20100 53004 $
 
KEEN - Keene/Dillant, New Hampshire, USA
Distance from station: S 34mi, 55km
Updated: 1:56pm
Mostly cloudy
Mostly cloudy
 Wind from WSW
Wind: WSW 13 mph , 20 km/h, Gust: 21 mph , 33 km/h
Temperature: 61°F , 16°C
Dew Point: 45°F , 7°C
Humidity: 55%
Barometer: 29.65 inHg , 1004.1 hPa
Clouds: Mostly cloudy
Visibility: 10 miles , 16 km
Cloud details: Mostly cloudy 3700 ft
2018/04/26 17:56 KEEN 261756Z AUTO 25011G18KT 10SM BKN037 16/07 A2965 RMK AO2 SLP059 6//// T01610067 10161 20111 53009
K1P1 - Plymouth, New Hampshire, USA
Distance from station: NE 42mi, 67km
Updated: 2:55pm
Mostly cloudy
Mostly cloudy
 Wind from WSW
Wind: WSW 10 mph , 17 km/h, Gust: 20 mph , 31 km/h
Temperature: 61°F , 16°C
Dew Point: 46°F , 8°C
Humidity: 59%
Barometer: 29.58 inHg , 1001.7 hPa
Clouds: Mostly cloudy
Visibility: 10 miles , 16 km
Cloud details: Partly cloudy 3300 ft
Mostly cloudy 3900 ft
Mostly cloudy 6000 ft
2018/04/26 18:55 K1P1 261855Z AUTO 25009G17KT 230V290 10SM SCT033 BKN039 BKN060 16/08 A2958 RMK AO2 T01590078
KAFN - Jaffrey, New Hampshire, USA
Distance from station: SSE 44mi, 70km
Updated: 2:52pm
Mostly cloudy
Mostly cloudy
 Wind from WSW
Wind: WSW 13 mph , 20 km/h, Gust: 24 mph , 39 km/h
Temperature: 57°F , 14°C
Dew Point: 41°F , 5°C
Humidity: 55%
Barometer: 29.66 inHg , 1004.4 hPa
Clouds: Mostly cloudy
Visibility: 10 miles , 16 km
Cloud details: Mostly cloudy 4100 ft
2018/04/26 18:52 KAFN 261852Z AUTO 25011G21KT 200V270 10SM BKN041 14/05 A2966 RMK AO2 SLP049 T01440050
 
KCON - Concord, New Hampshire, USA
Distance from station: ESE 45mi, 73km
Updated: 2:51pm
Few Clouds
Few Clouds
 Wind from SW
Wind: SW 17 mph , 28 km/h, Gust: 26 mph , 43 km/h
Temperature: 63°F , 17°C
Dew Point: 41°F , 5°C
Humidity: 45%
Barometer: 29.60 inHg , 1002.4 hPa
Clouds: Few Clouds
Visibility: 10 miles , 16 km
Cloud details: Few Clouds 4600 ft
2018/04/26 18:51 KCON 261851Z AUTO 23015G23KT 10SM FEW046 17/05 A2960 RMK AO2 SLP024 T01720050
KLCI - Laconia Muni, New Hampshire, USA
Distance from station: ENE 49mi, 80km
Updated: 1:56pm
Overcast
Overcast
 Wind from W
Wind: W 13 mph , 20 km/h, Gust: 20 mph , 31 km/h
Temperature: 57°F , 14°C
Dew Point: 48°F , 9°C
Humidity: 72%
Barometer: 29.58 inHg , 1001.7 hPa
Clouds: Overcast
Visibility: 10 miles , 16 km
Cloud details: Partly cloudy 2500 ft
Overcast 3900 ft
2018/04/26 17:56 KLCI 261756Z AUTO 27011G17KT 10SM SCT025 OVC039 14/09 A2958 RMK AO2 SLP034 60004 T01390089 10144 20094 53000
KDDH - Bennington, Vermont, USA
Distance from station: SW 55mi, 89km
Updated: 2:54pm
Overcast
Overcast
 Wind from WNW
Wind: WNW 15 mph , 24 km/h, Gust: 24 mph , 39 km/h
Temperature: 52°F , 11°C
Dew Point: 39°F , 4°C
Humidity: 62%
Barometer: 29.73 inHg , 1006.8 hPa
Clouds: Overcast
Visibility: 10 miles , 16 km
Cloud details: Mostly cloudy 2900 ft
Overcast 3300 ft
2018/04/26 18:54 KDDH 261854Z AUTO 30013G21KT 10SM BKN029 OVC033 11/04 A2973 RMK AO2 SLP067 T01060039
 
K6B0 - Middlebury, Vermont, USA
Distance from station: NW 56mi, 90km
Updated: 2:35pm
Overcast
Overcast
 Wind from SW
Wind: SW 7 mph , 11 km/h, Gust: 17 mph , 28 km/h
Temperature: 55°F , 13°C
Dew Point: 39°F , 4°C
Humidity: 55%
Barometer: 29.64 inHg , 1003.7 hPa
Clouds: Overcast
Visibility: 10 miles , 16 km
Cloud details: Partly cloudy 3500 ft
Overcast 4600 ft
2018/04/26 18:35 K6B0 261835Z AUTO 22006G15KT 160V270 10SM SCT035 OVC046 13/04 A2964 RMK AO2 T01250043
KMHT - Manchester, New Hampshire, USA
Distance from station: ESE 56mi, 90km
Updated: 2:53pm
Partly cloudy
Partly cloudy
 Wind from W
Wind: W 14 mph , 22 km/h, Gust: 26 mph , 43 km/h
Temperature: 66°F , 19°C
Dew Point: 41°F , 5°C
Humidity: 40%
Barometer: 29.60 inHg , 1002.4 hPa
Clouds: Partly cloudy
Visibility: 10 miles , 16 km
Cloud details: Partly cloudy 4900 ft
2018/04/26 18:53 KMHT 261853Z 27012G23KT 10SM SCT049 19/05 A2960 RMK AO2 SLP035 T01890050
KORE - Orange, Massachusetts, USA
Distance from station: S 56mi, 90km
Updated: 2:52pm
Overcast
Overcast
 Wind from W
Wind: W 14 mph , 22 km/h, Gust: 25 mph , 41 km/h
Temperature: 57°F , 14°C
Dew Point: 41°F , 5°C
Humidity: 55%
Barometer: 29.68 inHg , 1005.1 hPa
Clouds: Overcast
Visibility: 10 miles , 16 km
Cloud details: Overcast 4300 ft
2018/04/26 18:52 KORE 261852Z AUTO 27012G22KT 10SM OVC043 14/05 A2968 RMK AO2 SLP053 T01440050
 
KMPV - Montpelier/Barre, Vermont, USA
Distance from station: N 58mi, 93km
Updated: 2:51pm
Overcast
Overcast
 Wind from W
Wind: W 8 mph , 13 km/h
Temperature: 54°F , 12°C
Dew Point: 48°F , 9°C
Humidity: 82%
Barometer: 29.64 inHg , 1003.7 hPa
Clouds: Overcast
Visibility: 10 miles , 16 km
Cloud details: Partly cloudy 3300 ft
Mostly cloudy 4100 ft
Overcast 7000 ft
2018/04/26 18:51 KMPV 261851Z AUTO 28007KT 10SM SCT033 BKN041 OVC070 12/09 A2964 RMK AO2 SLP039 T01170089
KASH - Nashua/Boire Fld, New Hampshire, USA
Distance from station: SE 59mi, 95km
Updated: 1:56pm
Partly cloudy
Partly cloudy
 Wind from W
Wind: W 14 mph , 22 km/h, Gust: 25 mph , 41 km/h
Temperature: 64°F , 18°C
Dew Point: 43°F , 6°C
Humidity: 46%
Barometer: 29.61 inHg , 1002.7 hPa
Clouds: Partly cloudy
Visibility: 10 miles , 16 km
Cloud details: Few Clouds 4300 ft
Partly cloudy 5000 ft
2018/04/26 17:56 KASH 261756Z 27012G22KT 10SM FEW043 SCT050 18/06 A2961 RMK AO2 PK WND 26026/1739 SLP035 60001 T01830056 10189 20106 53004
KAQW - North Adams, Massachusetts, USA
Distance from station: SW 62mi, 99km
Updated: 2:52pm
Overcast
Overcast
 Wind from W
Wind: W 15 mph , 24 km/h, Gust: 25 mph , 41 km/h
Temperature: 54°F , 12°C
Dew Point: 39°F , 4°C
Humidity: 58%
Barometer: 29.72 inHg , 1006.4 hPa
Clouds: Overcast
Visibility: 10 miles , 16 km
Cloud details: Overcast 3300 ft
2018/04/26 18:52 KAQW 261852Z AUTO 28013G22KT 260V320 10SM OVC033 12/04 A2972 RMK AO2 SLP066 T01170039
 
KGFL - Glens Falls, New York, USA
Distance from station: W 63mi, 101km
Updated: 2:53pm
Overcast
Overcast
 Wind from WSW
Wind: WSW 12 mph , 19 km/h, Gust: 21 mph , 33 km/h
Temperature: 54°F , 12°C
Dew Point: 39°F , 4°C
Humidity: 58%
Barometer: 29.70 inHg , 1005.8 hPa
Clouds: Overcast
Visibility: 10 miles , 16 km
Cloud details: Overcast 4000 ft
2018/04/26 18:53 KGFL 261853Z AUTO 24010G18KT 10SM OVC040 12/04 A2970 RMK AO2 SLP059 T01170044
KFIT - Fitchburg, Massachusetts, USA
Distance from station: SSE 65mi, 105km
Updated: 2:52pm
Partly cloudy
Partly cloudy
 Wind from WNW
Wind: WNW 15 mph , 24 km/h, Gust: 22 mph , 35 km/h
Temperature: 66°F , 19°C
Dew Point: 45°F , 7°C
Humidity: 46%
Barometer: 29.65 inHg , 1004.1 hPa
Clouds: Partly cloudy
Visibility: 10 miles , 16 km
Cloud details: Partly cloudy 5000 ft
2018/04/26 18:52 KFIT 261852Z AUTO 29013G19KT 10SM SCT050 19/07 A2965 RMK AO2 PK WND 30027/1758 SLP040 T01940067
KDAW - Rochester, New Hampshire, USA
Distance from station: E 73mi, 118km
Updated: 2:51pm
Few Clouds
Few Clouds
 Wind from W
Wind: W 9 mph , 15 km/h, Gust: 18 mph , 30 km/h
Temperature: 68°F , 20°C
Dew Point: 43°F , 6°C
Humidity: 40%
Barometer: 29.56 inHg , 1001 hPa
Clouds: Few Clouds
Visibility: 10 miles , 16 km
Cloud details: Few Clouds 4100 ft
Few Clouds 4800 ft
2018/04/26 18:51 KDAW 261851Z AUTO 27008G16KT 240V300 10SM FEW041 FEW048 20/06 A2956 RMK AO2 SLP005 T02000061
 
K1V4 - St. Johnsbury, Vermont, USA
Distance from station: NNE 74mi, 119km
Updated: 1:54pm

 
Temperature: 54°F , 12°C
Dew Point: 52°F , 11°C
Humidity: 94%
Barometer: 29.56 inHg , 1001 hPa
2018/04/26 17:54 K1V4 261754Z AUTO 12/11 A2956 RMK AO1 SLP009 60023 T01220106 10128 20089 53001
KLWM - Lawrence, Massachusetts, USA
Distance from station: SE 77mi, 124km
Updated: 2:54pm
Clear
Clear
 Wind from WSW
Wind: WSW 15 mph , 24 km/h, Gust: 28 mph , 44 km/h
Temperature: 70°F , 21°C
Dew Point: 45°F , 7°C
Humidity: 40%
Barometer: 29.61 inHg , 1002.7 hPa
Clouds: Clear
Visibility: 10 miles , 16 km
2018/04/26 18:54 KLWM 261854Z 25013G24KT 10SM CLR 21/07 A2961 RMK AO2 PK WND 28027/1818 SLP027 T02060067

free counter page views since 4/29/2009